createdAt,value
2022-10-01T00:02:14.582Z,1.10
2022-10-01T00:04:44.465Z,1.35
2022-10-01T00:07:16.323Z,1.23
2022-10-01T00:09:46.891Z,1.20
2022-10-01T00:12:17.916Z,1.40
2022-10-01T00:14:48.010Z,1.20
2022-10-01T00:17:17.872Z,1.20
2022-10-01T00:19:47.735Z,1.10
2022-10-01T00:22:17.861Z,1.55
2022-10-01T00:24:48.432Z,1.20
2022-10-01T00:27:18.399Z,1.40
2022-10-01T00:29:48.332Z,1.30
2022-10-01T00:32:18.338Z,1.45
2022-10-01T00:34:48.356Z,1.10
2022-10-01T00:37:19.368Z,1.20
2022-10-01T00:39:50.152Z,1.20
2022-10-01T00:42:27.895Z,1.00
2022-10-01T00:44:57.849Z,1.20
2022-10-01T00:47:39.103Z,0.95
2022-10-01T00:50:32.113Z,1.30
2022-10-01T00:53:04.011Z,1.00
2022-10-01T00:55:55.339Z,1.50
2022-10-01T00:58:25.515Z,1.10
2022-10-01T01:00:56.637Z,1.20
2022-10-01T01:03:26.600Z,1.25
2022-10-01T01:05:56.473Z,1.20
2022-10-01T01:08:26.333Z,1.27
2022-10-01T01:11:02.413Z,0.98
2022-10-01T01:13:55.613Z,1.20
2022-10-01T01:16:51.075Z,1.17
2022-10-01T01:19:31.096Z,1.20
2022-10-01T01:22:03.020Z,1.30
2022-10-01T01:24:33.359Z,1.10
2022-10-01T01:27:27.909Z,1.20
2022-10-01T01:30:16.263Z,1.05
2022-10-01T01:33:15.512Z,1.10
2022-10-01T01:35:48.086Z,1.40
2022-10-01T01:38:21.611Z,1.10
2022-10-01T01:40:54.350Z,1.20
2022-10-01T01:43:30.809Z,1.15
2022-10-01T01:46:01.394Z,1.20
2022-10-01T01:48:32.112Z,1.20
2022-10-01T01:51:10.192Z,1.20
2022-10-01T01:53:40.199Z,1.38
2022-10-01T01:56:10.883Z,1.00
2022-10-01T01:58:41.745Z,1.23
2022-10-01T02:01:32.790Z,1.13
2022-10-01T02:04:04.962Z,1.48
2022-10-01T02:07:09.114Z,1.42
2022-10-01T02:09:52.328Z,1.20
2022-10-01T02:12:41.285Z,1.38
2022-10-01T02:15:27.227Z,1.35
2022-10-01T02:18:00.137Z,1.10
2022-10-01T02:20:36.639Z,1.33
2022-10-01T02:23:13.377Z,1.33
2022-10-01T02:25:49.953Z,1.30
2022-10-01T02:28:22.556Z,1.75
2022-10-01T02:30:55.968Z,1.55
2022-10-01T02:35:56.503Z,2.75
2022-10-01T02:38:26.496Z,3.08
2022-10-01T02:40:58.212Z,2.25
2022-10-01T02:43:33.762Z,2.85
2022-10-01T02:46:21.584Z,2.05
2022-10-01T02:48:53.037Z,2.20
2022-10-01T02:51:58.131Z,1.95
2022-10-01T02:54:57.146Z,1.95
2022-10-01T02:57:30.712Z,1.92
2022-10-01T03:00:06.200Z,2.10
2022-10-01T03:02:36.189Z,1.85
2022-10-01T03:05:06.604Z,1.95
2022-10-01T03:07:37.405Z,1.77
2022-10-01T03:10:08.946Z,2.20
2022-10-01T03:12:39.007Z,1.73
2022-10-01T03:15:10.609Z,2.05
2022-10-01T03:17:40.480Z,2.13
2022-10-01T03:20:11.309Z,1.80
2022-10-01T03:22:41.204Z,1.85
2022-10-01T03:25:11.764Z,1.52
2022-10-01T03:27:41.604Z,1.83
2022-10-01T03:30:12.887Z,2.13
2022-10-01T03:32:42.953Z,1.83
2022-10-01T03:35:12.881Z,1.80
2022-10-01T03:37:42.781Z,2.00
2022-10-01T03:40:13.473Z,2.00
2022-10-01T03:42:43.404Z,1.90
2022-10-01T03:45:14.019Z,1.70
2022-10-01T03:47:45.793Z,1.48
2022-10-01T03:50:16.778Z,1.75
2022-10-01T03:52:47.273Z,1.92
2022-10-01T03:55:17.695Z,1.90
2022-10-01T03:57:47.799Z,1.90
2022-10-01T04:00:19.589Z,1.60
2022-10-01T04:02:49.583Z,1.95
2022-10-01T04:05:19.595Z,1.60
2022-10-01T04:07:51.180Z,1.42
2022-10-01T04:10:21.997Z,2.00
2022-10-01T04:12:51.893Z,1.95
2022-10-01T04:15:23.153Z,1.63
2022-10-01T04:17:53.355Z,1.40
2022-10-01T04:20:23.903Z,1.92
2022-10-01T04:22:54.312Z,1.60
2022-10-01T04:25:24.785Z,1.48
2022-10-01T04:28:02.554Z,1.70
2022-10-01T04:30:35.001Z,1.50
2022-10-01T04:33:05.337Z,1.40
2022-10-01T04:35:35.675Z,1.70
2022-10-01T04:38:09.965Z,1.50
2022-10-01T04:40:40.739Z,1.38
2022-10-01T04:43:10.889Z,1.52
2022-10-01T04:45:43.110Z,1.33
2022-10-01T04:48:12.959Z,1.20
2022-10-01T04:50:43.734Z,1.30
2022-10-01T04:53:13.640Z,1.40
2022-10-01T04:55:44.892Z,1.20
2022-10-01T04:58:14.830Z,1.48
2022-10-01T05:00:45.766Z,1.58
2022-10-01T05:03:15.780Z,1.52
2022-10-01T05:05:45.749Z,1.45
2022-10-01T05:08:16.054Z,1.52
2022-10-01T05:10:46.639Z,1.45
2022-10-01T05:13:16.576Z,1.60
2022-10-01T05:15:46.584Z,1.23
2022-10-01T05:18:16.501Z,1.48
2022-10-01T05:20:46.397Z,1.58
2022-10-01T05:23:16.864Z,1.40
2022-10-01T05:25:47.983Z,1.55
2022-10-01T05:28:22.131Z,1.23
2022-10-01T05:30:53.147Z,1.20
2022-10-01T05:33:23.021Z,1.50
2022-10-01T05:35:53.226Z,1.50
2022-10-01T05:38:23.529Z,1.63
2022-10-01T05:40:54.129Z,1.35
2022-10-01T05:43:24.242Z,1.48
2022-10-01T05:45:54.159Z,1.15
2022-10-01T05:48:24.110Z,1.10
2022-10-01T05:50:55.928Z,1.23
2022-10-01T05:53:26.241Z,1.45
2022-10-01T05:55:56.240Z,1.67
2022-10-01T05:58:26.162Z,1.40
2022-10-01T06:00:57.512Z,1.27
2022-10-01T06:03:29.945Z,1.20
2022-10-01T06:05:59.940Z,1.20
2022-10-01T06:08:30.307Z,1.15
2022-10-01T06:11:04.553Z,1.15
2022-10-01T06:13:34.521Z,1.20
2022-10-01T06:16:04.590Z,1.20
2022-10-01T06:18:34.505Z,1.30
2022-10-01T06:21:05.188Z,1.40
2022-10-01T06:23:35.914Z,1.58
2022-10-01T06:26:10.052Z,1.10
2022-10-01T06:28:39.926Z,1.20
2022-10-01T06:31:10.691Z,1.30
2022-10-01T06:33:40.590Z,1.48
2022-10-01T06:36:10.572Z,1.55
2022-10-01T06:38:40.769Z,1.33
2022-10-01T06:41:12.438Z,1.27
2022-10-01T06:43:42.354Z,1.25
2022-10-01T06:46:12.365Z,1.45
2022-10-01T06:48:42.312Z,1.40
2022-10-01T06:51:12.602Z,1.15
2022-10-01T06:53:43.007Z,1.30
2022-10-01T06:56:12.928Z,1.42
2022-10-01T06:58:43.679Z,1.30
2022-10-01T07:01:15.667Z,1.27
2022-10-01T07:03:46.366Z,1.23
2022-10-01T07:06:16.340Z,1.42
2022-10-01T07:08:46.982Z,1.15
2022-10-01T07:11:19.283Z,1.25
2022-10-01T07:13:54.234Z,1.57
2022-10-01T07:16:24.761Z,1.35
2022-10-01T07:18:54.724Z,1.00
2022-10-01T07:21:25.534Z,1.20
2022-10-01T07:23:55.694Z,1.30
2022-10-01T07:26:25.683Z,1.10
2022-10-01T07:28:56.424Z,1.33
2022-10-01T07:31:28.163Z,1.13
2022-10-01T07:34:01.204Z,1.60
2022-10-01T07:36:32.210Z,1.20
2022-10-01T07:39:02.847Z,1.30
2022-10-01T07:41:33.920Z,1.75
2022-10-01T07:44:05.431Z,0.95
2022-10-01T07:46:35.482Z,1.02
2022-10-01T07:49:05.428Z,1.20
2022-10-01T07:51:37.757Z,1.38
2022-10-01T07:54:07.819Z,1.30
2022-10-01T07:56:37.748Z,1.20
2022-10-01T07:59:09.092Z,1.30
2022-10-01T08:01:40.239Z,1.30
2022-10-01T08:04:28.495Z,1.00
2022-10-01T08:06:59.359Z,1.08
2022-10-01T08:09:29.323Z,1.20
2022-10-01T08:12:00.054Z,1.17
2022-10-01T08:14:31.474Z,1.20
2022-10-01T08:17:01.561Z,1.15
2022-10-01T08:19:31.586Z,1.08
2022-10-01T08:22:02.913Z,1.10
2022-10-01T08:24:32.909Z,1.20
2022-10-01T08:27:02.839Z,1.20
2022-10-01T08:29:33.796Z,1.13
2022-10-01T08:32:04.791Z,1.20
2022-10-01T08:34:34.749Z,1.25
2022-10-01T08:37:04.685Z,1.00
2022-10-01T08:39:34.617Z,1.23
2022-10-01T08:42:24.554Z,1.15
2022-10-01T08:44:54.494Z,1.92
2022-10-01T08:47:33.287Z,1.52
2022-10-01T08:50:17.084Z,1.85
2022-10-01T08:52:54.555Z,1.90
2022-10-01T08:55:26.204Z,2.00
2022-10-01T08:58:01.905Z,2.30
2022-10-01T09:00:33.112Z,2.72
2022-10-01T09:03:07.245Z,2.20
2022-10-01T09:05:41.043Z,2.25
2022-10-01T09:08:45.548Z,2.38
2022-10-01T09:11:53.588Z,2.50
2022-10-01T09:14:45.848Z,2.50
2022-10-01T09:17:37.037Z,1.90
2022-10-01T09:20:34.758Z,1.88
2022-10-01T09:23:07.641Z,1.80
2022-10-01T09:25:37.683Z,2.15
2022-10-01T09:28:24.094Z,1.85
2022-10-01T09:31:01.778Z,2.05
2022-10-01T09:33:40.022Z,1.88
2022-10-01T09:37:00.852Z,1.40
2022-10-01T09:39:44.323Z,1.77
2022-10-01T09:42:14.464Z,2.05
2022-10-01T09:44:44.659Z,1.80
2022-10-01T09:47:20.964Z,1.80
2022-10-01T09:49:51.331Z,2.03
2022-10-01T09:52:36.825Z,1.70
2022-10-01T09:55:09.285Z,2.03
2022-10-01T09:57:44.838Z,2.27
2022-10-01T10:00:20.812Z,2.28
2022-10-01T10:02:52.025Z,1.92
2022-10-01T10:05:50.633Z,1.90
2022-10-01T10:08:40.412Z,1.83
2022-10-01T10:11:13.171Z,2.03
2022-10-01T10:13:45.777Z,1.90
2022-10-01T10:16:21.449Z,2.35
2022-10-01T10:18:54.635Z,1.95
2022-10-01T10:21:31.558Z,2.17
2022-10-01T10:24:06.191Z,2.17
2022-10-01T10:26:39.652Z,2.65
2022-10-01T10:29:14.779Z,2.50
2022-10-01T10:31:45.989Z,2.13
2022-10-01T10:34:20.555Z,1.55
2022-10-01T10:36:51.024Z,1.85
2022-10-01T10:39:32.430Z,1.55
2022-10-01T10:42:03.367Z,1.67
2022-10-01T10:44:37.427Z,2.20
2022-10-01T10:47:16.202Z,1.80
2022-10-01T10:49:59.647Z,1.50
2022-10-01T10:52:33.059Z,1.77
2022-10-01T10:55:07.730Z,1.70
2022-10-01T10:57:42.934Z,1.67
2022-10-01T11:00:22.507Z,1.50
2022-10-01T11:03:03.298Z,1.90
2022-10-01T11:05:42.734Z,1.60
2022-10-01T11:08:23.014Z,1.90
2022-10-01T11:11:08.838Z,1.80
2022-10-01T11:14:00.810Z,1.52
2022-10-01T11:16:52.492Z,1.67
2022-10-01T11:19:41.003Z,1.90
2022-10-01T11:22:24.247Z,1.98
2022-10-01T11:25:06.439Z,2.03
2022-10-01T11:27:44.314Z,1.88
2022-10-01T11:30:27.966Z,2.95
2022-10-01T11:35:36.522Z,2.00
2022-10-01T11:38:25.066Z,2.10
2022-10-01T11:41:15.062Z,2.08
2022-10-01T11:43:46.176Z,2.67
2022-10-01T11:46:27.797Z,2.13
2022-10-01T11:49:21.493Z,2.38
2022-10-01T11:52:08.838Z,2.30
2022-10-01T11:54:42.243Z,2.05
2022-10-01T11:57:31.851Z,2.30
2022-10-01T12:00:09.247Z,2.17
2022-10-01T12:02:48.013Z,2.22
2022-10-01T12:05:22.790Z,2.10
2022-10-01T12:08:04.997Z,2.10
2022-10-01T12:10:43.051Z,2.15
2022-10-01T12:13:21.981Z,2.40
2022-10-01T12:16:07.304Z,2.28
2022-10-01T12:18:49.795Z,2.20
2022-10-01T12:21:41.346Z,2.55
2022-10-01T12:24:15.969Z,1.80
2022-10-01T12:26:52.193Z,2.10
2022-10-01T12:29:28.255Z,2.03
2022-10-01T12:32:23.211Z,1.90
2022-10-01T12:35:09.913Z,1.90
2022-10-01T12:38:07.645Z,1.80
2022-10-01T12:40:43.643Z,1.95
2022-10-01T12:43:37.111Z,1.80
2022-10-01T12:46:20.516Z,1.55
2022-10-01T12:49:05.850Z,1.85
2022-10-01T12:51:54.357Z,1.63
2022-10-01T12:54:58.590Z,1.75
2022-10-01T12:57:58.561Z,3.05
2022-10-01T13:00:28.971Z,1.67
2022-10-01T13:03:38.539Z,1.58
2022-10-01T13:06:19.173Z,1.63
2022-10-01T13:09:16.725Z,1.52
2022-10-01T13:11:55.658Z,1.80
2022-10-01T13:14:25.790Z,1.67
2022-10-01T13:17:08.196Z,1.60
2022-10-01T13:20:14.629Z,1.70
2022-10-01T13:22:56.712Z,1.50
2022-10-01T13:25:30.464Z,1.70
2022-10-01T13:28:14.813Z,1.55
2022-10-01T13:31:15.838Z,1.38
2022-10-01T13:33:56.423Z,1.58
2022-10-01T13:36:37.763Z,1.50
2022-10-01T13:39:08.005Z,1.58
2022-10-01T13:41:38.289Z,1.58
2022-10-01T13:44:12.695Z,1.67
2022-10-01T13:47:14.416Z,1.48
2022-10-01T13:49:46.786Z,1.50
2022-10-01T13:52:22.813Z,1.92
2022-10-01T13:54:56.562Z,1.30
2022-10-01T13:57:36.247Z,1.50
2022-10-01T14:00:18.304Z,1.48
2022-10-01T14:03:23.583Z,1.48
2022-10-01T14:05:59.774Z,1.40
2022-10-01T14:08:40.093Z,1.40
2022-10-01T14:11:32.836Z,1.70
2022-10-01T14:14:48.637Z,1.40
2022-10-01T14:17:23.170Z,1.50
2022-10-01T14:19:53.594Z,1.50
2022-10-01T14:22:35.582Z,1.27
2022-10-01T14:25:31.702Z,1.40
2022-10-01T14:28:28.884Z,1.38
2022-10-01T14:31:11.083Z,1.65
2022-10-01T14:33:47.050Z,1.70
2022-10-01T14:36:36.118Z,1.70
2022-10-01T14:39:28.347Z,1.60
2022-10-01T14:41:59.115Z,1.30
2022-10-01T14:44:37.974Z,1.45
2022-10-01T14:47:37.152Z,1.70
2022-10-01T14:50:14.259Z,1.42
2022-10-01T14:52:46.739Z,1.30
2022-10-01T14:55:16.900Z,1.30
2022-10-01T14:57:50.559Z,1.33
2022-10-01T15:00:22.245Z,1.50
2022-10-01T15:02:53.717Z,1.55
2022-10-01T15:05:28.593Z,1.20
2022-10-01T15:07:58.945Z,1.40
2022-10-01T15:10:29.554Z,1.30
2022-10-01T15:12:59.504Z,1.70
2022-10-01T15:15:44.655Z,1.30
2022-10-01T15:18:16.724Z,1.33
2022-10-01T15:20:59.989Z,1.42
2022-10-01T15:23:30.175Z,1.27
2022-10-01T15:26:00.396Z,1.27
2022-10-01T15:28:34.085Z,1.48
2022-10-01T15:31:05.510Z,1.48
2022-10-01T15:33:41.462Z,1.30
2022-10-01T15:36:18.359Z,1.55
2022-10-01T15:38:48.436Z,1.42
2022-10-01T15:41:32.046Z,1.38
2022-10-01T15:44:05.887Z,1.30
2022-10-01T15:46:36.495Z,1.40
2022-10-01T15:49:20.558Z,1.30
2022-10-01T15:52:15.675Z,1.60
2022-10-01T15:54:46.172Z,1.55
2022-10-01T15:57:23.486Z,1.52
2022-10-01T15:59:54.793Z,1.38
2022-10-01T16:02:27.116Z,1.50
2022-10-01T16:04:57.871Z,1.40
2022-10-01T16:07:30.484Z,1.50
2022-10-01T16:10:01.590Z,1.50
2022-10-01T16:12:31.544Z,1.50
2022-10-01T16:15:02.113Z,1.45
2022-10-01T16:17:36.345Z,1.30
2022-10-01T16:20:18.521Z,1.63
2022-10-01T16:22:48.539Z,3.35
2022-10-01T16:25:24.892Z,3.25
2022-10-01T16:28:11.243Z,2.40
2022-10-01T16:30:41.203Z,2.88
2022-10-01T16:33:14.133Z,2.00
2022-10-01T16:35:46.661Z,1.92
2022-10-01T16:38:16.819Z,1.95
2022-10-01T16:40:49.116Z,1.75
2022-10-01T16:43:21.289Z,1.70
2022-10-01T16:45:51.246Z,1.70
2022-10-01T16:48:23.445Z,1.75
2022-10-01T16:51:00.193Z,1.98
2022-10-01T16:53:30.750Z,1.50
2022-10-01T16:56:00.721Z,1.60
2022-10-01T16:58:30.940Z,1.73
2022-10-01T17:01:01.382Z,1.65
2022-10-01T17:03:31.649Z,1.70
2022-10-01T17:06:01.678Z,1.73
2022-10-01T17:08:31.905Z,1.65
2022-10-01T17:11:03.086Z,1.52
2022-10-01T17:13:35.284Z,1.70
2022-10-01T17:16:07.020Z,1.77
2022-10-01T17:18:36.994Z,1.50
2022-10-01T17:21:07.383Z,1.65
2022-10-01T17:23:38.461Z,1.60
2022-10-01T17:26:09.641Z,1.55
2022-10-01T17:28:39.588Z,1.80
2022-10-01T17:31:12.197Z,2.25
2022-10-01T17:33:44.723Z,1.80
2022-10-01T17:36:15.169Z,1.38
2022-10-01T17:38:47.047Z,1.60
2022-10-01T17:41:17.189Z,1.80
2022-10-01T17:43:47.196Z,1.73
2022-10-01T17:46:17.344Z,1.60
2022-10-01T17:48:50.565Z,1.70
2022-10-01T17:53:51.283Z,1.20
2022-10-01T17:56:21.426Z,1.58
2022-10-01T17:58:51.483Z,1.40
2022-10-01T18:01:23.157Z,1.45
2022-10-01T18:03:57.237Z,1.65
2022-10-01T18:06:27.452Z,1.83
2022-10-01T18:09:02.309Z,1.65
2022-10-01T18:11:32.349Z,1.58
2022-10-01T18:14:02.358Z,1.38
2022-10-01T18:16:33.460Z,1.50
2022-10-01T18:21:53.959Z,1.38
2022-10-01T18:24:23.917Z,1.20
2022-10-01T18:26:54.163Z,1.42
2022-10-01T18:29:28.338Z,1.23
2022-10-01T18:32:11.695Z,1.10
2022-10-01T18:34:47.775Z,1.40
2022-10-01T18:37:47.698Z,1.10
2022-10-01T18:40:24.570Z,1.25
2022-10-01T18:43:15.845Z,1.25
2022-10-01T18:46:13.292Z,1.20
2022-10-01T18:49:20.177Z,1.20
2022-10-01T18:52:00.523Z,1.50
2022-10-01T18:54:48.967Z,1.33
2022-10-01T18:57:27.883Z,1.90
2022-10-01T19:00:07.443Z,1.20
2022-10-01T19:03:02.724Z,1.20
2022-10-01T19:05:35.631Z,1.40
2022-10-01T19:08:08.618Z,1.40
2022-10-01T19:10:43.221Z,1.55
2022-10-01T19:13:37.614Z,1.20
2022-10-01T19:16:14.540Z,1.00
2022-10-01T19:19:15.203Z,1.40
2022-10-01T19:22:15.929Z,1.50
2022-10-01T19:24:49.423Z,1.30
2022-10-01T19:27:28.896Z,1.17
2022-10-01T19:30:08.901Z,1.20
2022-10-01T19:32:51.470Z,1.00
2022-10-01T19:35:23.603Z,1.30
2022-10-01T19:38:21.302Z,1.00
2022-10-01T19:40:58.566Z,1.33
2022-10-01T19:43:54.950Z,1.00
2022-10-01T19:46:39.631Z,1.10
2022-10-01T19:49:10.151Z,1.40
2022-10-01T19:51:53.694Z,1.27
2022-10-01T19:56:55.877Z,1.08
2022-10-01T19:59:25.912Z,1.00
2022-10-01T20:02:25.976Z,1.25
2022-10-01T20:04:59.720Z,1.23
2022-10-01T20:07:37.462Z,1.30
2022-10-01T20:10:25.668Z,1.00
2022-10-01T20:13:26.378Z,1.27
2022-10-01T20:16:12.540Z,1.30
2022-10-01T20:19:07.168Z,0.90
2022-10-01T20:21:45.232Z,0.93
2022-10-01T20:24:31.077Z,1.17
2022-10-01T20:27:12.740Z,0.88
2022-10-01T20:30:15.954Z,1.00
2022-10-01T20:33:21.210Z,1.20
2022-10-01T20:35:59.904Z,0.90
2022-10-01T20:38:50.320Z,1.10
2022-10-01T20:41:21.862Z,0.88
2022-10-01T20:43:59.028Z,1.10
2022-10-01T20:46:37.064Z,1.02
2022-10-01T20:49:28.429Z,1.00
2022-10-01T20:51:59.363Z,0.90
2022-10-01T20:54:36.669Z,1.20
2022-10-01T20:57:23.529Z,1.00
2022-10-01T20:59:54.919Z,1.20
2022-10-01T21:02:52.187Z,0.90
2022-10-01T21:05:33.841Z,0.77
2022-10-01T21:08:19.524Z,1.20
2022-10-01T21:11:20.913Z,1.05
2022-10-01T21:13:59.116Z,0.90
2022-10-01T21:16:47.675Z,0.82
2022-10-01T21:19:42.041Z,0.85
2022-10-01T21:22:32.145Z,1.00
2022-10-01T21:25:23.431Z,1.17
2022-10-01T21:28:19.870Z,0.90
2022-10-01T21:31:08.615Z,1.02
2022-10-01T21:33:55.181Z,0.82
2022-10-01T21:36:39.519Z,1.00
2022-10-01T21:39:18.983Z,0.90
2022-10-01T21:42:11.348Z,1.20
2022-10-01T21:44:46.026Z,1.38
2022-10-01T21:47:25.209Z,1.17
2022-10-01T21:50:36.491Z,0.90
2022-10-01T21:53:24.343Z,0.85
2022-10-01T21:56:10.528Z,0.73
2022-10-01T21:58:49.737Z,0.90
2022-10-01T22:01:56.958Z,0.88
2022-10-01T22:04:36.535Z,0.80
2022-10-01T22:07:45.156Z,0.90
2022-10-01T22:10:29.248Z,1.00
2022-10-01T22:13:01.877Z,0.93
2022-10-01T22:15:38.030Z,0.88
2022-10-01T22:18:11.440Z,0.88
2022-10-01T22:20:41.648Z,0.93
2022-10-01T22:23:12.747Z,1.02
2022-10-01T22:26:02.988Z,0.98
2022-10-01T22:28:38.300Z,0.90
2022-10-01T22:31:10.680Z,0.90
2022-10-01T22:33:50.265Z,0.80
2022-10-01T22:37:08.294Z,0.70
2022-10-01T22:39:41.253Z,1.00
2022-10-01T22:42:17.015Z,0.80
2022-10-01T22:44:48.544Z,1.17
2022-10-01T22:47:37.007Z,1.02
2022-10-01T22:50:29.930Z,1.02
2022-10-01T22:53:21.736Z,0.90
2022-10-01T22:55:56.494Z,0.90
2022-10-01T22:58:45.146Z,1.00
2022-10-01T23:01:36.415Z,0.90
2022-10-01T23:04:27.749Z,1.08
2022-10-01T23:07:15.865Z,0.93
2022-10-01T23:10:12.213Z,0.90
2022-10-01T23:12:48.226Z,0.93
2022-10-01T23:15:41.481Z,0.70
2022-10-01T23:18:37.389Z,0.70
2022-10-01T23:21:25.608Z,0.90
2022-10-01T23:24:59.908Z,0.90
2022-10-01T23:27:35.837Z,0.70
2022-10-01T23:30:15.251Z,0.90
2022-10-01T23:32:50.963Z,0.80
2022-10-01T23:35:44.003Z,0.70
2022-10-01T23:38:25.703Z,0.70
2022-10-01T23:40:56.856Z,0.80
2022-10-01T23:43:49.428Z,0.73
2022-10-01T23:46:34.385Z,0.80
2022-10-01T23:49:26.115Z,0.90
2022-10-01T23:52:05.403Z,0.60
2022-10-01T23:54:38.642Z,0.70
2022-10-01T23:57:18.383Z,0.77
